首页
METAR-TAF:

METAR-TAF

机场 :

Rocky Mount-Wilson Regional Airport

Rocky Mount, 北卡罗来纳州, 美国

纬度: 35-51-18N, 经度: 077-53-35W, 海拔: 49米

当前天气观测

该预报发布于32分钟前的23:53 UTC
静风
温度 6°C
湿度 100%
气压 1026 hPa
能見度: 16.1公里
天空无云

METAR: KRWI 172353Z AUTO 00000KT 10SM CLR 06/06 A3029 RMK AO2 SLP257 T00610056 10139 20056 53014

时间: 19:25 (00:25 UTC)

预报

该预报发布于48分钟前的23:37 UTC
预报有效从18日的 00点(UTC)到 18日的 24点(UTC)
风速2节,风向多变
能見度: 10公里
多云层高于25000英尺
短暂存在
从 18日的 09点(UTC)到 18日的 13点(UTC)
能見度: 0.8公里
少量云层高于100英尺
从 18日的 1400点(UTC)
风速2节,风向东转东北
能見度: 10公里
少量云层高于3500英尺
散云层高于25000英尺

TAF: KRWI 172337Z 1800/1824 VRB02KT P6SM BKN250 TEMPO 1809/1813 1/2SM FG FEW001 FM181400 07002KT P6SM FEW035 SCT250

超过4000个机场的气象观测和天气预报(METAR&TAF报告)。

可查询的气象台以黄色和红色小点在地图上表示。

将鼠标移到小点上方,可查看气象台名称。

然后点击查看天气观测和预报。

如需切换地图:点击带黑十字的绿色按钮放大地图;点击带横线的绿色按钮缩小地图;或者点击绿色箭头查看邻近地区的地图。


METAR-TAF: